createdAt,value
2022-09-01T00:01:48.692Z,15.88
2022-09-01T00:04:20.254Z,15.81
2022-09-01T00:06:48.496Z,15.76
2022-09-01T00:09:18.099Z,15.75
2022-09-01T00:11:48.826Z,15.70
2022-09-01T00:14:30.703Z,15.62
2022-09-01T00:17:00.061Z,15.61
2022-09-01T00:19:26.960Z,15.61
2022-09-01T00:21:53.661Z,15.55
2022-09-01T00:24:20.290Z,15.47
2022-09-01T00:26:47.859Z,15.48
2022-09-01T00:29:16.180Z,15.44
2022-09-01T00:31:42.757Z,15.41
2022-09-01T00:34:09.404Z,15.39
2022-09-01T00:36:36.232Z,15.37
2022-09-01T00:39:04.140Z,15.32
2022-09-01T00:41:32.558Z,15.24
2022-09-01T00:44:01.824Z,15.20
2022-09-01T00:46:40.281Z,15.19
2022-09-01T00:49:24.835Z,15.13
2022-09-01T00:52:08.442Z,15.11
2022-09-01T00:54:39.913Z,15.03
2022-09-01T00:57:08.206Z,14.98
2022-09-01T00:59:36.112Z,14.98
2022-09-01T01:02:02.634Z,14.99
2022-09-01T01:04:30.256Z,14.99
2022-09-01T01:07:01.763Z,14.95
2022-09-01T01:09:31.806Z,14.90
2022-09-01T01:12:00.166Z,14.89
2022-09-01T01:14:29.043Z,14.86
2022-09-01T01:16:55.658Z,14.85
2022-09-01T01:20:02.847Z,14.77
2022-09-01T01:23:03.888Z,14.73
2022-09-01T01:25:35.848Z,14.71
2022-09-01T01:28:18.594Z,14.70
2022-09-01T01:30:52.431Z,14.64
2022-09-01T01:33:25.801Z,14.61
2022-09-01T01:35:53.516Z,14.60
2022-09-01T01:38:22.923Z,14.62
2022-09-01T01:40:51.714Z,14.57
2022-09-01T01:43:23.062Z,14.59
2022-09-01T01:45:52.198Z,14.55
2022-09-01T01:48:23.946Z,14.47
2022-09-01T01:50:51.869Z,14.44
2022-09-01T01:53:19.161Z,14.52
2022-09-01T01:55:49.643Z,14.53
2022-09-01T01:58:21.117Z,14.50
2022-09-01T02:00:50.571Z,14.48
2022-09-01T02:03:25.164Z,14.45
2022-09-01T02:05:53.665Z,14.42
2022-09-01T02:08:22.750Z,14.40
2022-09-01T02:10:51.398Z,14.41
2022-09-01T02:13:23.237Z,14.37
2022-09-01T02:15:53.886Z,14.38
2022-09-01T02:18:48.205Z,14.34
2022-09-01T02:21:19.517Z,14.29
2022-09-01T02:23:57.733Z,14.30
2022-09-01T02:26:28.067Z,14.30
2022-09-01T02:28:56.109Z,14.29
2022-09-01T02:31:24.672Z,14.25
2022-09-01T02:33:52.176Z,14.23
2022-09-01T02:36:20.549Z,14.21
2022-09-01T02:38:53.163Z,14.18
2022-09-01T02:41:23.205Z,14.15
2022-09-01T02:43:50.139Z,14.10
2022-09-01T02:46:17.232Z,14.08
2022-09-01T02:51:26.410Z,14.05
2022-09-01T02:53:53.503Z,14.04
2022-09-01T02:56:25.736Z,14.05
2022-09-01T02:58:53.183Z,14.03
2022-09-01T03:01:22.889Z,14.02
2022-09-01T03:03:50.083Z,14.00
2022-09-01T03:06:19.572Z,13.98
2022-09-01T03:08:46.517Z,13.93
2022-09-01T03:11:13.539Z,13.96
2022-09-01T03:13:41.048Z,13.93
2022-09-01T03:16:08.409Z,13.92
2022-09-01T03:18:35.311Z,13.92
2022-09-01T03:21:02.467Z,13.95
2022-09-01T03:23:31.415Z,13.91
2022-09-01T03:25:58.441Z,13.90
2022-09-01T03:28:25.190Z,13.88
2022-09-01T03:30:54.129Z,13.89
2022-09-01T03:33:21.990Z,13.95
2022-09-01T03:35:49.228Z,13.95
2022-09-01T03:38:24.114Z,13.95
2022-09-01T03:41:01.207Z,13.93
2022-09-01T03:43:35.646Z,13.94
2022-09-01T03:46:03.054Z,13.91
2022-09-01T03:48:31.664Z,13.92
2022-09-01T03:51:03.050Z,13.90
2022-09-01T03:53:33.711Z,13.89
2022-09-01T03:56:00.305Z,13.87
2022-09-01T03:58:27.489Z,13.83
2022-09-01T04:00:56.812Z,13.82
2022-09-01T04:03:28.793Z,13.80
2022-09-01T04:05:58.842Z,13.75
2022-09-01T04:08:29.976Z,13.73
2022-09-01T04:11:03.778Z,13.70
2022-09-01T04:13:35.640Z,13.66
2022-09-01T04:16:02.906Z,13.64
2022-09-01T04:18:30.555Z,13.64
2022-09-01T04:20:59.425Z,13.62
2022-09-01T04:23:33.518Z,13.62
2022-09-01T04:26:09.116Z,13.62
2022-09-01T04:28:50.779Z,13.60
2022-09-01T04:31:21.296Z,13.58
2022-09-01T04:33:52.634Z,13.56
2022-09-01T04:36:23.770Z,13.56
2022-09-01T04:38:56.451Z,13.54
2022-09-01T04:41:25.765Z,13.52
2022-09-01T04:43:56.466Z,13.51
2022-09-01T04:46:24.164Z,13.50
2022-09-01T04:48:52.587Z,13.52
2022-09-01T04:51:20.968Z,13.51
2022-09-01T04:53:50.976Z,13.52
2022-09-01T04:56:20.748Z,13.63
2022-09-01T04:58:52.170Z,13.67
2022-09-01T05:01:22.899Z,13.66
2022-09-01T05:03:56.532Z,13.63
2022-09-01T05:06:23.433Z,13.58
2022-09-01T05:08:52.199Z,13.55
2022-09-01T05:11:18.792Z,13.51
2022-09-01T05:13:49.190Z,13.44
2022-09-01T05:16:22.795Z,13.41
2022-09-01T05:18:55.771Z,13.41
2022-09-01T05:21:26.567Z,13.57
2022-09-01T05:23:54.369Z,13.55
2022-09-01T05:26:23.808Z,13.53
2022-09-01T05:28:54.102Z,13.64
2022-09-01T05:31:21.557Z,13.63
2022-09-01T05:33:49.981Z,13.66
2022-09-01T05:36:20.093Z,13.62
2022-09-01T05:38:47.971Z,13.62
2022-09-01T05:41:16.516Z,13.71
2022-09-01T05:43:46.284Z,13.69
2022-09-01T05:46:17.004Z,13.72
2022-09-01T05:48:45.091Z,13.90
2022-09-01T05:51:40.423Z,13.88
2022-09-01T05:56:44.298Z,14.02
2022-09-01T05:59:28.415Z,14.07
2022-09-01T06:01:55.990Z,14.20
2022-09-01T06:04:25.772Z,14.20
2022-09-01T06:07:10.221Z,14.26
2022-09-01T06:09:43.400Z,14.34
2022-09-01T06:12:17.550Z,14.43
2022-09-01T06:14:45.720Z,14.51
2022-09-01T06:17:16.234Z,14.61
2022-09-01T06:19:43.846Z,14.71
2022-09-01T06:22:10.670Z,14.73
2022-09-01T06:24:40.122Z,14.81
2022-09-01T06:27:09.923Z,14.96
2022-09-01T06:29:39.681Z,15.14
2022-09-01T06:32:10.483Z,15.26
2022-09-01T06:34:40.309Z,15.37
2022-09-01T06:37:07.018Z,15.53
2022-09-01T06:39:34.442Z,15.62
2022-09-01T06:42:01.141Z,15.77
2022-09-01T06:44:28.043Z,15.86
2022-09-01T06:46:54.984Z,15.96
2022-09-01T06:49:23.571Z,15.98
2022-09-01T06:51:52.733Z,16.16
2022-09-01T06:54:21.089Z,16.23
2022-09-01T06:56:51.273Z,16.27
2022-09-01T06:59:19.726Z,16.35
2022-09-01T07:01:48.971Z,16.45
2022-09-01T07:04:21.450Z,16.55
2022-09-01T07:07:00.386Z,16.68
2022-09-01T07:09:46.969Z,16.74
2022-09-01T07:17:56.286Z,17.01
2022-09-01T07:20:25.839Z,17.08
2022-09-01T07:23:09.142Z,17.20
2022-09-01T07:26:01.054Z,17.27
2022-09-01T07:28:39.982Z,17.41
2022-09-01T07:39:48.599Z,17.88
2022-09-01T07:42:31.250Z,16.87
2022-09-01T07:45:26.961Z,18.13
2022-09-01T07:47:55.551Z,18.33
2022-09-01T07:50:39.847Z,18.42
2022-09-01T07:53:09.153Z,18.56
2022-09-01T07:55:36.444Z,18.55
2022-09-01T07:58:02.975Z,18.70
2022-09-01T08:00:31.933Z,18.69
2022-09-01T08:02:58.980Z,18.80
2022-09-01T08:05:27.187Z,18.99
2022-09-01T08:07:54.542Z,19.17
2022-09-01T08:10:21.660Z,19.34
2022-09-01T08:12:56.219Z,19.39
2022-09-01T08:15:41.209Z,19.33
2022-09-01T08:18:10.600Z,19.66
2022-09-01T08:20:41.386Z,19.76
2022-09-01T08:23:07.969Z,20.44
2022-09-01T08:25:36.201Z,20.99
2022-09-01T08:28:03.794Z,21.51
2022-09-01T08:30:34.971Z,21.73
2022-09-01T08:35:46.228Z,22.42
2022-09-01T08:38:12.869Z,22.54
2022-09-01T08:40:41.258Z,22.21
2022-09-01T08:43:19.124Z,21.96
2022-09-01T08:45:56.125Z,22.00
2022-09-01T08:51:52.552Z,22.15
2022-09-01T08:54:29.634Z,22.32
2022-09-01T08:57:01.244Z,22.66
2022-09-01T08:59:28.871Z,22.95
2022-09-01T09:02:13.523Z,23.55
2022-09-01T09:05:15.457Z,24.56
2022-09-01T09:07:48.643Z,24.52
2022-09-01T09:10:21.824Z,25.12
2022-09-01T09:13:13.364Z,25.45
2022-09-01T09:15:40.671Z,25.46
2022-09-01T09:18:57.511Z,25.82
2022-09-01T09:21:37.076Z,25.33
2022-09-01T09:24:48.053Z,26.55
2022-09-01T09:27:21.313Z,25.39
2022-09-01T09:29:51.018Z,25.50
2022-09-01T09:32:39.380Z,26.68
2022-09-01T09:35:24.843Z,26.85
2022-09-01T09:37:51.700Z,26.50
2022-09-01T09:40:18.946Z,26.68
2022-09-01T09:42:55.596Z,27.23
2022-09-01T09:45:27.163Z,27.25
2022-09-01T09:47:55.764Z,27.65
2022-09-01T09:50:26.719Z,26.86
2022-09-01T09:53:05.395Z,26.47
2022-09-01T09:55:31.978Z,27.11
2022-09-01T09:58:00.752Z,27.43
2022-09-01T10:00:32.286Z,26.47
2022-09-01T10:03:08.874Z,26.57
2022-09-01T10:05:54.017Z,26.85
2022-09-01T10:08:27.091Z,26.91
2022-09-01T10:10:57.579Z,27.34
2022-09-01T10:13:25.947Z,27.89
2022-09-01T10:15:56.824Z,27.47
2022-09-01T10:18:39.659Z,27.41
2022-09-01T10:21:16.684Z,27.73
2022-09-01T10:23:43.563Z,28.43
2022-09-01T10:26:23.179Z,27.21
2022-09-01T10:29:00.799Z,27.73
2022-09-01T10:31:32.190Z,28.15
2022-09-01T10:34:02.811Z,28.16
2022-09-01T10:36:33.131Z,28.13
2022-09-01T10:39:04.780Z,29.18
2022-09-01T10:41:45.450Z,29.07
2022-09-01T10:44:21.016Z,29.08
2022-09-01T10:49:29.771Z,29.12
2022-09-01T10:52:03.239Z,29.38
2022-09-01T10:54:45.229Z,28.80
2022-09-01T10:57:42.425Z,28.90
2022-09-01T11:00:39.909Z,29.86
2022-09-01T11:06:11.414Z,29.89
2022-09-01T11:08:50.868Z,28.78
2022-09-01T11:11:37.647Z,28.51
2022-09-01T11:14:20.338Z,28.96
2022-09-01T11:17:20.348Z,29.36
2022-09-01T11:20:00.012Z,28.85
2022-09-01T11:22:44.505Z,29.75
2022-09-01T11:25:39.653Z,29.83
2022-09-01T11:28:17.840Z,29.94
2022-09-01T11:30:55.742Z,29.99
2022-09-01T11:33:34.104Z,30.67
2022-09-01T11:36:04.869Z,29.52
2022-09-01T11:38:46.824Z,28.92
2022-09-01T11:41:33.880Z,28.42
2022-09-01T11:44:02.321Z,29.18
2022-09-01T11:46:32.678Z,29.53
2022-09-01T11:49:04.038Z,29.12
2022-09-01T11:51:46.349Z,29.85
2022-09-01T11:54:14.467Z,30.14
2022-09-01T11:56:41.175Z,30.04
2022-09-01T11:59:07.782Z,29.35
2022-09-01T12:01:36.622Z,29.08
2022-09-01T12:04:22.485Z,28.94
2022-09-01T12:07:01.784Z,30.04
2022-09-01T12:09:59.516Z,29.33
2022-09-01T12:12:37.725Z,29.21
2022-09-01T12:15:25.357Z,29.07
2022-09-01T12:17:53.386Z,31.45
2022-09-01T12:20:29.679Z,33.23
2022-09-01T12:22:58.497Z,33.73
2022-09-01T12:25:34.737Z,31.96
2022-09-01T12:28:02.727Z,33.34
2022-09-01T12:30:29.817Z,33.03
2022-09-01T12:35:45.266Z,32.62
2022-09-01T12:38:21.109Z,33.97
2022-09-01T12:40:54.088Z,33.18
2022-09-01T12:43:34.756Z,34.44
2022-09-01T12:46:02.883Z,34.41
2022-09-01T12:48:37.072Z,34.88
2022-09-01T12:51:18.886Z,35.75
2022-09-01T12:53:58.544Z,34.55
2022-09-01T12:56:35.672Z,33.51
2022-09-01T12:59:10.646Z,33.72
2022-09-01T13:01:42.162Z,34.18
2022-09-01T13:04:13.067Z,34.59
2022-09-01T13:06:40.275Z,35.34
2022-09-01T13:09:06.837Z,33.66
2022-09-01T13:14:20.934Z,34.19
2022-09-01T13:16:47.524Z,35.47
2022-09-01T13:19:19.762Z,35.23
2022-09-01T13:21:52.931Z,35.16
2022-09-01T13:24:19.570Z,34.07
2022-09-01T13:29:41.841Z,35.02
2022-09-01T13:32:18.923Z,34.84
2022-09-01T13:34:47.262Z,33.79
2022-09-01T13:37:13.920Z,34.51
2022-09-01T13:39:40.432Z,34.83
2022-09-01T13:42:07.031Z,34.30
2022-09-01T13:44:35.381Z,34.15
2022-09-01T13:47:29.817Z,33.68
2022-09-01T13:52:35.735Z,31.06
2022-09-01T13:55:02.247Z,30.93
2022-09-01T13:57:31.589Z,32.17
2022-09-01T14:02:54.461Z,33.24
2022-09-01T14:05:25.822Z,33.77
2022-09-01T14:10:50.799Z,32.58
2022-09-01T14:13:20.263Z,32.79
2022-09-01T14:15:48.272Z,31.27
2022-09-01T14:20:57.223Z,32.24
2022-09-01T14:23:24.475Z,32.02
2022-09-01T14:25:51.568Z,32.01
2022-09-01T14:28:20.104Z,31.08
2022-09-01T14:30:47.801Z,31.81
2022-09-01T14:33:14.583Z,32.60
2022-09-01T14:35:43.652Z,32.47
2022-09-01T14:38:12.215Z,32.52
2022-09-01T14:40:40.109Z,31.80
2022-09-01T14:43:09.826Z,32.11
2022-09-01T14:45:37.805Z,33.24
2022-09-01T14:48:04.953Z,33.77
2022-09-01T14:50:32.685Z,34.58
2022-09-01T14:53:01.186Z,34.37
2022-09-01T14:55:30.103Z,33.64
2022-09-01T14:57:57.428Z,34.07
2022-09-01T15:00:25.303Z,33.46
2022-09-01T15:05:39.769Z,34.39
2022-09-01T15:08:07.756Z,33.14
2022-09-01T15:10:34.323Z,33.42
2022-09-01T15:13:01.916Z,35.31
2022-09-01T15:15:30.852Z,35.82
2022-09-01T15:17:57.559Z,36.47
2022-09-01T15:20:56.388Z,35.99
2022-09-01T15:26:05.407Z,35.49
2022-09-01T15:28:32.022Z,34.04
2022-09-01T15:31:00.110Z,33.38
2022-09-01T15:33:26.709Z,33.65
2022-09-01T15:35:53.869Z,35.15
2022-09-01T15:38:22.851Z,34.26
2022-09-01T15:40:58.111Z,35.38
2022-09-01T15:43:25.977Z,34.67
2022-09-01T15:45:52.498Z,34.09
2022-09-01T15:48:19.133Z,35.33
2022-09-01T15:50:45.759Z,35.68
2022-09-01T15:53:13.253Z,35.43
2022-09-01T15:55:41.061Z,34.83
2022-09-01T15:58:08.413Z,34.68
2022-09-01T16:00:35.425Z,35.43
2022-09-01T16:03:02.543Z,34.45
2022-09-01T16:05:31.121Z,35.85
2022-09-01T16:07:57.821Z,33.63
2022-09-01T16:10:24.530Z,33.87
2022-09-01T16:12:51.861Z,34.66
2022-09-01T16:15:20.548Z,34.65
2022-09-01T16:18:18.151Z,35.56
2022-09-01T16:21:01.871Z,34.24
2022-09-01T16:23:50.791Z,33.10
2022-09-01T16:26:20.309Z,33.18
2022-09-01T16:28:58.022Z,32.50
2022-09-01T16:31:34.915Z,32.40
2022-09-01T16:34:10.048Z,31.03
2022-09-01T16:37:07.402Z,30.22
2022-09-01T16:39:40.007Z,30.76
2022-09-01T16:42:15.219Z,31.38
2022-09-01T16:45:09.140Z,31.74
2022-09-01T16:47:51.309Z,31.37
2022-09-01T16:53:45.134Z,28.50
2022-09-01T16:56:14.939Z,27.93
2022-09-01T16:58:43.267Z,27.42
2022-09-01T17:01:14.200Z,26.94
2022-09-01T17:03:57.273Z,26.53
2022-09-01T17:06:37.826Z,26.42
2022-09-01T17:09:21.203Z,26.52
2022-09-01T17:14:39.937Z,25.88
2022-09-01T17:17:12.358Z,25.84
2022-09-01T17:19:41.107Z,25.75
2022-09-01T17:24:58.672Z,25.38
2022-09-01T17:27:32.415Z,25.02
2022-09-01T17:32:52.892Z,25.17
2022-09-01T17:35:23.863Z,25.08
2022-09-01T17:38:21.444Z,25.01
2022-09-01T17:41:04.999Z,24.96
2022-09-01T17:43:49.292Z,24.86
2022-09-01T17:46:38.722Z,24.59
2022-09-01T17:49:20.727Z,24.57
2022-09-01T17:51:47.213Z,24.50
2022-09-01T17:54:41.785Z,24.47
2022-09-01T17:57:41.268Z,24.37
2022-09-01T18:00:23.365Z,24.41
2022-09-01T18:03:09.710Z,24.40
2022-09-01T18:05:40.357Z,24.34
2022-09-01T18:08:16.207Z,24.20
2022-09-01T18:11:01.209Z,24.16
2022-09-01T18:13:54.141Z,24.08
2022-09-01T18:16:25.228Z,24.07
2022-09-01T18:18:53.311Z,24.03
2022-09-01T18:21:50.923Z,23.96
2022-09-01T18:24:21.801Z,23.79
2022-09-01T18:26:51.113Z,23.67
2022-09-01T18:29:18.610Z,23.55
2022-09-01T18:32:23.493Z,23.51
2022-09-01T18:35:42.352Z,23.31
2022-09-01T18:38:47.179Z,23.16
2022-09-01T18:41:13.673Z,23.06
2022-09-01T18:43:40.738Z,22.87
2022-09-01T18:46:16.115Z,22.68
2022-09-01T18:48:51.582Z,22.55
2022-09-01T18:51:34.368Z,22.37
2022-09-01T18:54:10.952Z,22.18
2022-09-01T18:56:46.023Z,22.09
2022-09-01T18:59:45.954Z,22.01
2022-09-01T19:02:31.498Z,21.96
2022-09-01T19:07:49.299Z,21.82
2022-09-01T19:10:21.731Z,21.71
2022-09-01T19:12:57.595Z,21.64
2022-09-01T19:15:39.592Z,21.52
2022-09-01T19:18:34.659Z,21.39
2022-09-01T19:21:06.347Z,21.33
2022-09-01T19:23:59.416Z,21.28
2022-09-01T19:26:27.325Z,21.23
2022-09-01T19:29:01.595Z,21.15
2022-09-01T19:31:31.833Z,21.12
2022-09-01T19:34:06.746Z,21.00
2022-09-01T19:36:38.140Z,21.00
2022-09-01T19:39:07.613Z,20.93
2022-09-01T19:41:57.241Z,20.85
2022-09-01T19:44:38.803Z,20.71
2022-09-01T19:47:31.485Z,20.63
2022-09-01T19:50:12.394Z,20.57
2022-09-01T19:53:17.436Z,20.52
2022-09-01T19:55:53.385Z,20.42
2022-09-01T19:58:39.627Z,20.40
2022-09-01T20:01:10.648Z,20.27
2022-09-01T20:03:43.301Z,20.27
2022-09-01T20:08:59.852Z,20.21
2022-09-01T20:11:48.172Z,20.20
2022-09-01T20:14:32.526Z,20.18
2022-09-01T20:17:07.968Z,20.06
2022-09-01T20:19:56.605Z,20.03
2022-09-01T20:22:32.920Z,20.02
2022-09-01T20:25:15.639Z,20.03
2022-09-01T20:27:51.430Z,19.95
2022-09-01T20:30:24.906Z,19.90
2022-09-01T20:33:23.908Z,19.82
2022-09-01T20:35:55.495Z,19.77
2022-09-01T20:38:48.560Z,19.75
2022-09-01T20:41:29.831Z,19.66
2022-09-01T20:43:57.335Z,19.58
2022-09-01T20:46:25.818Z,19.55
2022-09-01T20:48:52.640Z,19.48
2022-09-01T20:51:32.407Z,19.39
2022-09-01T20:54:29.856Z,19.32
2022-09-01T20:57:25.646Z,19.27
2022-09-01T21:03:00.846Z,19.15
2022-09-01T21:05:45.468Z,19.12
2022-09-01T21:08:30.907Z,19.07
2022-09-01T21:11:16.082Z,18.92
2022-09-01T21:14:31.542Z,18.96
2022-09-01T21:17:30.439Z,18.82
2022-09-01T21:20:08.351Z,18.80
2022-09-01T21:22:35.104Z,18.74
2022-09-01T21:25:01.908Z,18.67
2022-09-01T21:27:36.824Z,18.66
2022-09-01T21:30:09.602Z,18.65
2022-09-01T21:32:36.534Z,18.58
2022-09-01T21:37:45.415Z,18.47
2022-09-01T21:40:13.108Z,18.42
2022-09-01T21:42:52.012Z,18.40
2022-09-01T21:45:24.214Z,18.32
2022-09-01T21:47:51.648Z,18.31
2022-09-01T21:50:20.802Z,18.28
2022-09-01T21:52:47.402Z,18.24
2022-09-01T21:55:16.666Z,18.24
2022-09-01T21:57:46.042Z,18.21
2022-09-01T22:00:22.193Z,18.22
2022-09-01T22:05:31.111Z,18.11
2022-09-01T22:07:58.488Z,18.09
2022-09-01T22:10:28.065Z,18.09
2022-09-01T22:15:45.685Z,18.07
2022-09-01T22:18:12.582Z,18.03
2022-09-01T22:20:40.087Z,18.10
2022-09-01T22:23:07.616Z,18.06
2022-09-01T22:25:34.865Z,18.08
2022-09-01T22:28:05.602Z,18.06
2022-09-01T22:30:32.900Z,18.12
2022-09-01T22:33:00.916Z,18.12
2022-09-01T22:35:27.535Z,18.10
2022-09-01T22:37:54.366Z,18.12
2022-09-01T22:40:21.202Z,18.10
2022-09-01T22:42:55.288Z,18.10
2022-09-01T22:45:21.807Z,18.12
2022-09-01T22:47:48.331Z,18.12
2022-09-01T22:50:14.877Z,18.15
2022-09-01T22:52:42.081Z,18.16
2022-09-01T22:55:09.006Z,18.17
2022-09-01T22:57:36.893Z,18.16
2022-09-01T23:00:08.364Z,18.10
2022-09-01T23:02:39.695Z,18.14
2022-09-01T23:05:06.986Z,18.12
2022-09-01T23:07:35.141Z,18.13
2022-09-01T23:10:02.911Z,18.09
2022-09-01T23:12:29.444Z,18.10
2022-09-01T23:14:55.936Z,18.12
2022-09-01T23:17:22.448Z,18.09
2022-09-01T23:19:49.060Z,18.07
2022-09-01T23:22:15.593Z,18.08
2022-09-01T23:24:42.195Z,18.09
2022-09-01T23:27:08.753Z,18.05
2022-09-01T23:29:36.814Z,18.03
2022-09-01T23:32:03.905Z,18.05
2022-09-01T23:34:30.474Z,18.04
2022-09-01T23:36:56.956Z,18.01
2022-09-01T23:39:23.457Z,17.96
2022-09-01T23:41:51.786Z,17.92
2022-09-01T23:44:18.286Z,17.89
2022-09-01T23:46:46.189Z,17.88
2022-09-01T23:49:14.493Z,17.85
2022-09-01T23:51:41.565Z,17.82
2022-09-01T23:54:08.443Z,17.79
2022-09-01T23:56:35.011Z,17.76
2022-09-01T23:59:09.104Z,17.68
